East Berne, NY

1:03 PM EST on December 26, 2014 (GMT -0500)
Remley Lane - 1760' | Change Station
CLOSE
Current Station
Personal Weather Station
Location: Westerlo, NY
Elevation: 1760 ft
Nearby Weather Stations

Elev 1760 ft 42.58 °N, 74.07 °W | Updated 3 minutes ago

Partly Cloudy
Partly Cloudy
38.9 °F
Feels Like 35 °F
N
5.0
Wind Variable Wind from West
Gusts 9.0 mph

Today
High -- | Low -- °F
--% Chance of Precip.
Yesterday
High -- | Low -- °F
Precip. -- in
7:24 AM 4:28 PM
Waxing Crescent, 28% visible
Pressure 30.19 in
Visibility 10.0 miles
Clouds Scattered Clouds 3500 ft
Windchill 35 °F
Dew Point 31 °F
Humidity 72%
Rainfall 0.00 in
Snow Depth Not available.
UV 1 out of 12
Pollen .10 out of 12
Air Quality Not available.
Flu Activity Not available.
METAR KALB 261751Z 31012KT 10SM SCT035 08/M02 A3019 RMK AO2 SLP223 SCT V BKN T00831017 10083 20050 58015

More Conditions Fewer Conditions

Pressure 30.19 in
Visibility 10.0 miles
Clouds Scattered Clouds 3500 ft
Windchill 35 °F
Dew Point 31 °F
Humidity 72%
Rainfall 0.00 in
Snow Depth Not available.
UV 1 out of 12
Pollen .10 out of 12
Air Quality Not available.
Flu Activity Not available.
METAR KALB 261751Z 31012KT 10SM SCT035 08/M02 A3019 RMK AO2 SLP223 SCT V BKN T00831017 10083 20050 58015

More Conditions Fewer Conditions

10-Day Weather Forecast

Almanac

Astronomy

Dec. 26, 2014 Rise Set
Actual Time
Civil Twilight
Nautical Twilight
Astronomical Twilight
Moon
Length of Visible Light
Length of Day
Tomorrow will be .
, % of the Moon is Illuminated

Today's Extremes

State Highs State Lows

Community

WunderPhotos

Upload Photos

1,780,660 photos uploaded!

WunderBlogs® & News

Nearby

Air Quality

  Air Quality AQ Index Pollutant
Not available.

Snow Depth

Station Depth Elevation

Earthquake Activity

City Distance Mag. Time & Date
Minimum magnitude displayed is 2.5.

Coastal Water Temperatures

Place Temperature

Nearby Weather Stations